SVPL1: Red River at Shreveport Site 2

                                SHEF ID:       SVPL1     Red River at Shreveport Site 2
STATION TYPE:

PRECIP STAGE RIV-FLOW VOLTAGE
in ft cfs volt
Ccp-Rev Ccp-Rev Ccp-Rev Ccp-Rev
(America/Chicago)
07/13 00:00 0.00 14.52 10240 12.80
07/13 01:00 0.00 14.51 10120 12.80
07/13 02:00 0.00 14.50 10000 12.79
07/13 03:00 0.00 14.49 9875 12.78
07/13 04:00 0.00 14.48 9750 12.77
07/13 05:00 0.00 14.47 9625 12.77
07/13 06:00 0.00 14.45 9375 12.77
07/13 07:00 0.00 14.44 9250 12.85
07/13 08:00 0.00 14.43 9125 12.90
07/13 09:00 0.00 14.40 8750 13.08
07/13 10:00 0.00 14.37 8375 13.09
07/13 11:00 0.00 14.25 6875 13.13
07/13 12:00 0.00 14.34 8000 13.05
07/13 13:00 0.00 14.31 7625 13.07
07/13 14:00 0.00 14.32 7750 13.09
07/13 15:00 0.00 14.28 7250 12.93
07/13 16:00 0.00 14.63 11560 12.88
07/13 17:00 0.00 14.61 11320 12.85
07/13 18:00 0.00 14.64 11680 12.82
07/13 19:00 0.00 14.78 13360 12.79
07/13 20:00 0.00 14.87 14440 12.77
07/13 21:00 0.00 14.93 15160 12.77
07/13 22:00 0.00 14.96 15520 12.76
07/13 23:00 0.00 14.93 15160 12.77
Data processed at Tue 14Jul2026 04:24 GMT

NOTICE: If you are parsing this page

Please convert to using our Data API. Starting early 2026 we will be migrating to: https://water.usace.army.mil with modern pages rendered in JavaScript. When this migration completes you will no longer be able to scrape this page! CWMSDataAPI (CDA)

Timeseries IDs (TSIDs)

TSIDs used from left to right in the data table
SHRE.Precip-Inc.Total.1Hour.1Hour.Ccp-Rev
SHRE.Stage.Inst.1Hour.0.Ccp-Rev
SHRE.Flow.Inst.1Hour.0.Ccp-Rev
SHRE.Volt-Battery.Inst.1Hour.0.Ccp-Rev

                            

All information presented herein is the property of the government of the United States of America and may be revised or deleted at any time without prior notice. Dissemination of this information without the expressed written consent of the Public Affairs Office, Tulsa District U.S. Army Corps of Engineers is strictly prohibited. These data are gathered electronically and, as presented, have NOT undergone any form of quality control. These data are NOT guaranteed to be valid or correct.